TAF and METAR

METAR for Moundou Airport

FTTD 010900Z 00000KT CAVOK 33/M01 Q1011
Report created 1. mar 10:00
wind 0 knots from N (000°) Clear sky Temperature 33° with dewpoint at -1° (Humidity 11.32%) Pressure 1011 hPa
No TAF available for Moundou Airport